Time;durP1;ratioP1;P1;durP2;ratioP2;P2;SDS_P1;SDS_P2;PMS_P1;PMS_P2;Temp;Humidity;BMP_temperature;BMP_pressure;BME280_temperature;BME280_humidity;BME280_pressure;Samples;Min_cycle;Max_cycle;Signal;HPM_P1;HPM_P2
2022/07/03 00:02:06;;;;;;;;;0.00;0.00;;;;;21.79;42.68;101554.13;5091322;27;46403;-82
2022/07/03 00:04:32;;;;;;;;;0.00;0.00;;;;;21.62;42.59;101531.03;5089272;27;45397;-82
2022/07/03 00:06:57;;;;;;;;;1.00;1.00;;;;;21.98;42.02;101594.25;5089293;27;45476;-81
2022/07/03 00:09:23;;;;;;;;;1.00;1.00;;;;;21.94;42.89;101595.50;5094753;27;45485;-82
2022/07/03 00:11:48;;;;;;;;;0.67;0.67;;;;;21.90;42.38;101589.44;5091185;27;46488;-82
2022/07/03 00:14:14;;;;;;;;;0.00;0.00;;;;;21.79;42.44;101577.69;5082172;27;45393;-81
2022/07/03 00:16:39;;;;;;;;;1.00;1.00;;;;;21.85;42.70;101593.50;5095807;27;45486;-84
2022/07/03 00:19:04;;;;;;;;;0.00;0.00;;;;;21.64;42.69;101561.63;5084180;27;45306;-82
2022/07/03 00:21:56;;;;;;;;;0.00;0.00;;;;;21.77;42.37;101585.09;5094415;27;45430;-80
2022/07/03 00:24:30;;;;;;;;;2.33;1.00;;;;;21.46;43.10;101535.91;5080740;27;45376;-81
2022/07/03 00:26:58;;;;;;;;;2.00;0.00;;;;;20.74;42.27;101412.13;5096817;27;45540;-81
2022/07/03 00:29:31;;;;;;;;;0.33;0.33;;;;;21.68;42.65;101575.81;5098773;27;45377;-82
2022/07/03 00:31:58;;;;;;;;;0.00;0.00;;;;;21.03;42.56;101477.69;5090747;27;46145;-82
2022/07/03 00:34:25;;;;;;;;;1.00;1.00;;;;;21.66;42.68;101594.09;5080884;27;45507;-82
2022/07/03 00:36:52;;;;;;;;;1.00;1.00;;;;;21.41;42.86;101547.13;5091197;27;45464;-82
2022/07/03 00:39:18;;;;;;;;;1.00;1.00;;;;;21.57;42.97;101570.38;5090591;27;45332;-81
2022/07/03 00:41:46;;;;;;;;;1.00;0.33;;;;;21.58;42.73;101581.09;5093856;27;48231;-80
2022/07/03 00:44:12;;;;;;;;;1.00;1.00;;;;;21.36;43.14;101543.88;5077438;27;45516;-81
2022/07/03 00:46:41;;;;;;;;;1.00;1.00;;;;;21.57;43.08;101582.06;5098389;27;45447;-80
2022/07/03 00:49:09;;;;;;;;;0.33;0.33;;;;;21.26;43.05;101532.88;5087785;27;45471;-81
2022/07/03 00:51:39;;;;;;;;;1.00;1.00;;;;;21.48;43.60;101580.94;5086132;27;47264;-81
2022/07/03 00:54:07;;;;;;;;;1.00;1.00;;;;;21.37;43.54;101571.84;5095722;27;45406;-82
2022/07/03 00:56:34;;;;;;;;;0.33;0.33;;;;;21.45;43.53;101585.75;5094577;27;45317;-82
2022/07/03 00:59:00;;;;;;;;;1.00;1.00;;;;;21.35;43.22;101565.66;5089641;27;45489;-81
2022/07/03 01:01:29;;;;;;;;;1.00;1.00;;;;;21.31;43.10;101561.50;5095107;27;47559;-81
2022/07/03 01:04:10;;;;;;;;;0.00;0.00;;;;;21.14;43.19;101539.22;5093782;27;45383;-82
2022/07/03 01:06:58;;;;;;;;;0.67;0.67;;;;;21.36;43.27;101579.13;5095476;27;45488;-81
2022/07/03 01:09:39;;;;;;;;;0.00;0.00;;;;;21.35;43.48;101585.50;5095750;27;45477;-82
2022/07/03 01:12:22;;;;;;;;;0.00;0.00;;;;;21.32;43.94;101590.31;5094980;27;48492;-82
2022/07/03 01:15:03;;;;;;;;;0.00;0.00;;;;;21.36;44.12;101606.25;5091846;27;45646;-81
2022/07/03 01:17:39;;;;;;;;;0.00;0.00;;;;;21.35;43.87;101603.63;5096197;27;45718;-82
2022/07/03 01:20:06;;;;;;;;;2.67;2.00;;;;;21.11;44.49;101566.56;5090782;27;45426;-81
2022/07/03 01:22:35;;;;;;;;;1.00;1.00;;;;;21.10;44.37;101575.69;5095693;27;46293;-81
2022/07/03 01:25:08;;;;;;;;;1.00;0.33;;;;;21.00;44.23;101553.81;5080398;27;45397;-82
2022/07/03 01:27:42;;;;;;;;;0.67;0.00;;;;;21.10;43.85;101575.69;5095477;27;45916;-81
2022/07/03 01:30:10;;;;;;;;;0.67;0.67;;;;;21.29;43.91;101608.56;5086080;27;45634;-81
2022/07/03 01:32:45;;;;;;;;;0.00;0.00;;;;;21.23;44.21;101609.00;5097788;27;45825;-81
2022/07/03 01:35:22;;;;;;;;;1.00;1.00;;;;;21.06;44.00;101585.00;5070827;27;45359;-81
2022/07/03 01:37:50;;;;;;;;;0.00;0.00;;;;;21.17;44.39;101608.63;5096999;27;45523;-81
2022/07/03 01:40:18;;;;;;;;;1.00;1.00;;;;;21.06;44.45;101598.56;5070786;27;45336;-82
2022/07/03 01:42:45;;;;;;;;;0.67;0.67;;;;;20.91;44.53;101578.00;5083215;27;46338;-81
2022/07/03 01:45:14;;;;;;;;;0.33;0.00;;;;;20.77;44.29;101565.50;5097367;27;45445;-84
2022/07/03 01:47:46;;;;;;;;;1.00;1.00;;;;;20.34;44.72;101498.19;5087064;27;45465;-82
2022/07/03 01:50:14;;;;;;;;;0.00;0.00;;;;;21.02;44.61;101610.59;5094607;27;45485;-83
2022/07/03 01:52:45;;;;;;;;;0.00;0.00;;;;;20.98;44.74;101607.28;5079540;27;48435;-82
2022/07/03 01:55:12;;;;;;;;;1.00;1.00;;;;;20.78;44.72;101583.47;5079362;27;45466;-83
2022/07/03 01:57:42;;;;;;;;;0.00;0.00;;;;;20.91;44.66;101614.13;5097671;27;45777;-83
2022/07/03 02:00:09;;;;;;;;;2.67;1.00;;;;;20.88;44.78;101606.19;5096927;27;45701;-83
2022/07/03 02:02:41;;;;;;;;;2.00;1.00;;;;;20.90;44.78;101606.97;5096965;27;46496;-82
2022/07/03 02:05:30;;;;;;;;;1.33;1.33;;;;;20.85;44.90;101610.00;5096297;27;45377;-82
2022/07/03 02:08:30;;;;;;;;;1.00;1.00;;;;;20.79;45.25;101607.75;5092102;27;45520;-83
2022/07/03 02:11:10;;;;;;;;;1.33;1.33;;;;;20.26;45.38;101519.53;5085191;27;45479;-82
2022/07/03 02:14:18;;;;;;;;;1.33;1.33;;;;;20.71;45.26;101614.72;5081497;27;46268;-83
2022/07/03 02:17:08;;;;;;;;;1.67;1.00;;;;;20.51;45.93;101587.19;5092323;27;45413;-83
2022/07/03 02:20:02;;;;;;;;;1.33;1.33;;;;;20.63;45.71;101607.16;5096021;27;45671;-83
2022/07/03 02:22:33;;;;;;;;;1.00;1.00;;;;;20.37;46.05;101563.81;5097538;27;45399;-82
2022/07/03 02:25:05;;;;;;;;;1.67;1.00;;;;;20.51;46.05;101587.19;5092408;27;47305;-82
2022/07/03 02:27:50;;;;;;;;;1.00;1.00;;;;;20.54;46.46;101605.94;5072495;27;45406;-83
2022/07/03 02:30:16;;;;;;;;;1.00;1.00;;;;;20.56;46.04;101612.13;5097019;27;45566;-82
2022/07/03 02:32:49;;;;;;;;;3.00;1.00;;;;;20.18;46.66;101545.31;5097602;27;45427;-83
2022/07/03 02:35:32;;;;;;;;;1.00;1.00;;;;;20.13;46.42;101555.59;5096658;27;45558;-83
2022/07/03 02:38:09;;;;;;;;;2.00;1.00;;;;;20.50;46.67;101619.78;5097058;27;45396;-82
2022/07/03 02:40:43;;;;;;;;;1.00;1.00;;;;;20.44;46.74;101624.69;5086570;27;45568;-82
2022/07/03 02:43:57;;;;;;;;;0.67;0.67;;;;;20.32;46.50;101612.03;5088620;27;45401;-82
2022/07/03 02:46:49;;;;;;;;;1.00;1.00;;;;;20.35;46.97;101619.06;5021619;28;47103;-82
2022/07/03 02:49:20;;;;;;;;;1.00;1.00;;;;;20.37;47.09;101628.81;5033766;28;45376;-82
2022/07/03 02:51:57;;;;;;;;;1.00;1.00;;;;;20.16;46.85;101596.00;5033743;28;45407;-83
2022/07/03 02:54:24;;;;;;;;;1.33;1.00;;;;;20.30;47.13;101623.91;5033830;28;45423;-82
2022/07/03 02:57:09;;;;;;;;;1.00;1.00;;;;;19.89;46.79;101560.91;5033533;28;45443;-82
2022/07/03 02:59:55;;;;;;;;;0.00;0.00;;;;;19.97;46.97;101582.00;5032443;28;45476;-82
2022/07/03 03:02:33;;;;;;;;;2.00;2.00;;;;;20.23;47.49;101635.19;5033646;28;45380;-83
2022/07/03 03:05:09;;;;;;;;;1.67;1.00;;;;;20.05;47.13;101598.59;5026157;28;45520;-82
2022/07/03 03:07:59;;;;;;;;;1.00;1.00;;;;;19.82;47.60;101579.41;5033282;28;47384;-83
2022/07/03 03:10:24;;;;;;;;;2.00;2.00;;;;;19.89;47.38;101592.50;5019667;28;45447;-83
2022/07/03 03:13:04;;;;;;;;;1.00;1.00;;;;;20.14;47.94;101640.38;5026923;28;45983;-83
2022/07/03 03:15:30;;;;;;;;;1.00;1.00;;;;;20.06;48.00;101637.34;5013649;28;45586;-82
2022/07/03 03:18:01;;;;;;;;;1.00;1.00;;;;;20.10;47.75;101636.16;5021809;28;46737;-83
2022/07/03 03:20:31;;;;;;;;;1.33;1.33;;;;;20.07;47.98;101630.97;5022611;28;45496;-83
2022/07/03 03:23:15;;;;;;;;;2.67;2.67;;;;;20.01;47.49;101630.41;5032179;27;45448;-82
2022/07/03 03:25:40;;;;;;;;;0.67;0.67;;;;;19.86;47.39;101604.41;5091936;27;45440;-82
2022/07/03 03:28:06;;;;;;;;;0.00;0.00;;;;;19.96;48.06;101623.59;5080422;27;46096;-81
2022/07/03 03:30:31;;;;;;;;;1.00;1.00;;;;;19.83;47.91;101610.03;5093575;27;45366;-82
2022/07/03 03:32:57;;;;;;;;;0.67;0.67;;;;;19.70;47.79;101587.50;5078373;27;45392;-83
2022/07/03 03:35:22;;;;;;;;;1.67;1.67;;;;;19.80;47.68;101602.13;5089070;27;45566;-81
2022/07/03 03:37:50;;;;;;;;;1.00;1.00;;;;;19.93;47.74;101621.97;5083577;27;46426;-83
2022/07/03 03:40:17;;;;;;;;;1.00;1.00;;;;;19.74;47.82;101598.00;5087468;27;45547;-82
2022/07/03 03:42:42;;;;;;;;;1.00;0.00;;;;;19.85;48.08;101626.16;5095067;27;45318;-82
2022/07/03 03:45:08;;;;;;;;;0.67;0.67;;;;;19.87;48.24;101627.78;5078236;27;45693;-83
2022/07/03 03:47:34;;;;;;;;;3.00;2.00;;;;;19.65;47.70;101603.16;5085871;27;47037;-82
2022/07/03 03:50:01;;;;;;;;;1.00;1.00;;;;;19.80;48.26;101634.59;5086214;27;45770;-82
2022/07/03 03:52:26;;;;;;;;;2.00;2.00;;;;;19.75;48.33;101626.78;5096091;27;45384;-82
2022/07/03 03:54:51;;;;;;;;;0.67;0.67;;;;;19.71;47.97;101635.22;5095247;27;45619;-81
2022/07/03 03:57:25;;;;;;;;;2.33;0.67;;;;;19.72;48.52;101634.25;5099060;27;47370;-82
2022/07/03 03:59:51;;;;;;;;;1.00;1.00;;;;;19.32;48.60;101574.72;5063646;27;45503;-82
2022/07/03 04:02:17;;;;;;;;;2.00;0.67;;;;;19.46;48.88;101601.69;5099399;27;45613;-82
2022/07/03 04:04:44;;;;;;;;;1.00;1.00;;;;;19.58;48.72;101630.59;5098758;27;45390;-81
2022/07/03 04:07:09;;;;;;;;;0.33;0.33;;;;;19.42;48.65;101602.88;5098271;27;47146;-81
2022/07/03 04:09:35;;;;;;;;;1.33;1.33;;;;;19.54;48.54;101625.50;5099319;27;45386;-82
2022/07/03 04:12:00;;;;;;;;;3.33;1.00;;;;;19.48;49.00;101610.56;5099621;27;45545;-82
2022/07/03 04:14:26;;;;;;;;;2.00;2.00;;;;;19.12;49.27;101563.41;5099601;27;45614;-82
2022/07/03 04:16:51;;;;;;;;;0.00;0.00;;;;;19.37;49.24;101611.28;5093697;27;45510;-82
2022/07/03 04:19:17;;;;;;;;;1.00;1.00;;;;;19.49;49.09;101633.06;5099239;27;45444;-81
2022/07/03 04:21:42;;;;;;;;;1.00;1.00;;;;;19.24;49.49;101595.97;5091906;27;45252;-82
2022/07/03 04:24:07;;;;;;;;;1.00;1.00;;;;;19.51;49.37;101645.50;5081441;27;45597;-83
2022/07/03 04:26:33;;;;;;;;;0.00;0.00;;;;;19.44;49.05;101640.63;5099112;27;47418;-83
2022/07/03 04:28:58;;;;;;;;;1.00;1.00;;;;;19.02;49.58;101567.69;5099134;27;45359;-83
2022/07/03 04:31:24;;;;;;;;;1.67;0.33;;;;;19.47;49.25;101646.69;5092344;27;45472;-82
2022/07/03 04:33:49;;;;;;;;;2.00;2.00;;;;;19.07;49.69;101583.59;5090603;27;45452;-82
2022/07/03 04:36:15;;;;;;;;;2.00;1.00;;;;;19.04;49.24;101581.97;5088429;27;46015;-81
2022/07/03 04:38:41;;;;;;;;;1.00;1.00;;;;;19.40;49.20;101639.94;5079306;27;45395;-82
2022/07/03 04:41:06;;;;;;;;;0.67;0.67;;;;;19.19;49.39;101605.25;5085701;27;45450;-82
2022/07/03 04:43:31;;;;;;;;;2.00;1.00;;;;;19.44;49.30;101646.91;5099141;27;45540;-83
2022/07/03 04:45:56;;;;;;;;;1.00;1.00;;;;;19.43;49.57;101636.16;5072453;27;47005;-82
2022/07/03 04:48:22;;;;;;;;;0.67;0.67;;;;;19.40;49.02;101637.25;5092424;27;45493;-82
2022/07/03 04:50:47;;;;;;;;;0.00;0.00;;;;;19.34;49.24;101626.88;5093117;27;45413;-82
2022/07/03 04:53:12;;;;;;;;;0.00;0.00;;;;;19.46;49.27;101644.09;5080438;27;45951;-83
2022/07/03 04:55:38;;;;;;;;;1.00;0.67;;;;;19.53;49.06;101651.69;5093137;27;45493;-82
2022/07/03 04:58:03;;;;;;;;;0.67;0.67;;;;;19.51;49.46;101650.91;5098723;27;45881;-83
2022/07/03 05:00:29;;;;;;;;;2.67;1.00;;;;;19.58;49.73;101660.34;5096680;27;45474;-82
2022/07/03 05:02:54;;;;;;;;;1.00;1.00;;;;;19.47;49.76;101641.28;5093667;27;45623;-83
2022/07/03 05:05:19;;;;;;;;;0.67;0.67;;;;;19.35;49.68;101621.34;5092685;27;45547;-82
2022/07/03 05:07:45;;;;;;;;;1.00;1.00;;;;;19.32;49.66;101617.97;5098218;27;45431;-81
2022/07/03 05:10:10;;;;;;;;;0.33;0.33;;;;;19.44;49.58;101640.63;5090936;27;45406;-84
2022/07/03 05:12:35;;;;;;;;;0.67;0.67;;;;;19.19;49.36;101602.56;5090238;27;45659;-83
2022/07/03 05:15:01;;;;;;;;;1.00;1.00;;;;;19.38;49.75;101631.94;5084577;27;46951;-89
2022/07/03 05:17:26;;;;;;;;;0.00;0.00;;;;;19.70;49.80;101677.63;5088724;27;45995;-87
2022/07/03 05:20:37;;;;;;;;;1.00;1.00;;;;;19.54;50.32;101648.00;5098222;27;45366;-84
2022/07/03 05:22:42;;;;;;;;;0.00;0.00;;;;;19.13;49.71;101570.56;5082429;27;45404;-84
2022/07/03 05:25:08;;;;;;;;;2.00;1.00;;;;;19.72;50.28;101669.41;5098030;27;46346;-84
2022/07/03 05:27:37;;;;;;;;;0.00;0.00;;;;;19.68;50.78;101657.94;5088546;27;45533;-85
2022/07/03 05:30:03;;;;;;;;;1.00;1.00;;;;;19.02;50.14;101550.63;5084167;27;45480;-86
2022/07/03 05:32:28;;;;;;;;;1.00;1.00;;;;;19.01;50.61;101543.47;5097206;27;45382;-87
2022/07/03 05:34:53;;;;;;;;;0.00;0.00;;;;;18.84;50.46;101498.66;5094737;27;46482;-86
2022/07/03 05:37:19;;;;;;;;;1.00;1.00;;;;;18.72;49.64;101478.72;5085915;27;45497;-86
2022/07/03 05:39:44;;;;;;;;;1.00;1.00;;;;;19.08;49.75;101542.97;5090285;27;45665;-85
2022/07/03 05:42:09;;;;;;;;;0.00;0.00;;;;;19.73;49.57;101638.69;5084694;27;45400;-87
2022/07/03 05:44:35;;;;;;;;;1.33;1.33;;;;;19.21;49.73;101548.41;5084259;27;46184;-85
2022/07/03 05:47:00;;;;;;;;;15.67;14.33;;;;;18.74;49.66;101471.38;5090287;27;45495;-86
2022/07/03 05:49:26;;;;;;;;;2.00;2.00;;;;;19.82;49.69;101649.75;5085250;27;45392;-83
2022/07/03 05:51:51;;;;;;;;;1.00;1.00;;;;;19.79;50.12;101639.13;5091300;27;45447;-82
2022/07/03 05:54:17;;;;;;;;;0.67;0.67;;;;;19.68;50.52;101617.34;5086379;27;46275;-83
2022/07/03 05:56:42;;;;;;;;;1.00;0.67;;;;;19.96;50.30;101656.91;5086727;27;45547;-83
2022/07/03 05:59:07;;;;;;;;;1.00;1.00;;;;;19.56;50.07;101574.91;5088539;27;45486;-82
2022/07/03 06:01:33;;;;;;;;;1.00;1.00;;;;;19.95;50.79;101640.81;5093694;27;45730;-84
2022/07/03 06:04:01;;;;;;;;;2.67;1.33;;;;;20.02;49.94;101637.56;5088317;27;47270;-83
2022/07/03 06:06:26;;;;;;;;;2.33;1.00;;;;;20.19;49.70;101668.00;5086142;27;45413;-85
2022/07/03 06:08:52;;;;;;;;;2.00;2.00;;;;;19.95;50.24;101616.44;5067783;27;46024;-84
2022/07/03 06:11:17;;;;;;;;;1.67;0.00;;;;;19.22;50.60;101493.38;5071637;27;45781;-85
2022/07/03 06:13:42;;;;;;;;;0.00;0.00;;;;;19.57;51.77;101544.16;5079122;27;48422;-83
2022/07/03 06:16:07;;;;;;;;;0.33;0.33;;;;;20.15;51.00;101651.09;5089303;27;45496;-83
2022/07/03 06:18:33;;;;;;;;;1.00;1.00;;;;;19.64;51.00;101544.59;5071671;27;45436;-84
2022/07/03 06:20:58;;;;;;;;;0.67;0.67;;;;;19.84;50.07;101579.31;5084324;27;45359;-84
2022/07/03 06:23:23;;;;;;;;;1.00;1.00;;;;;19.59;50.25;101540.38;5085250;27;46546;-84
2022/07/03 06:25:52;;;;;;;;;2.00;1.00;;;;;20.10;50.59;101618.06;5087002;27;45532;-84
2022/07/03 06:28:17;;;;;;;;;0.00;0.00;;;;;20.35;50.56;101652.41;5087993;27;45428;-84
2022/07/03 06:30:43;;;;;;;;;1.00;1.00;;;;;19.89;50.61;101566.31;5083932;27;45547;-85
2022/07/03 06:33:11;;;;;;;;;0.33;0.33;;;;;19.63;51.60;101513.13;5070578;27;48376;-85
2022/07/03 06:35:37;;;;;;;;;2.00;2.00;;;;;19.55;50.69;101475.78;5092364;27;45409;-85
2022/07/03 06:38:22;;;;;;;;;1.67;0.33;;;;;20.89;50.53;101682.97;5080567;27;45381;-85
2022/07/03 06:40:48;;;;;;;;;0.00;0.00;;;;;20.52;50.44;101623.28;5081212;27;45406;-84
2022/07/03 06:43:19;;;;;;;;;1.00;1.00;;;;;20.99;50.11;101689.44;5063085;27;47733;-84
2022/07/03 06:45:44;;;;;;;;;1.00;1.00;;;;;21.07;50.70;101692.44;5060700;27;45934;-83
2022/07/03 06:48:10;;;;;;;;;1.33;1.33;;;;;20.55;50.44;101596.81;5085134;27;45476;-85
2022/07/03 06:50:38;;;;;;;;;1.00;1.00;;;;;20.77;50.83;101620.56;5082374;27;46070;-83
2022/07/03 06:53:04;;;;;;;;;1.33;1.33;;;;;21.09;50.91;101666.09;5078580;27;46651;-85
2022/07/03 06:55:29;;;;;;;;;88.75;77.00;;;;;20.19;50.04;101524.53;5090205;27;45433;-86
2022/07/03 06:57:54;;;;;;;;;2.33;1.67;;;;;21.24;49.69;101699.38;5088259;27;45543;-87
2022/07/03 07:00:23;;;;;;;;;2.67;2.33;;;;;21.23;49.95;101697.63;5090106;27;45449;-88
2022/07/03 07:02:48;;;;;;;;;3.00;3.00;;;;;20.96;50.52;101638.19;5077760;27;46369;-86
2022/07/03 07:05:13;;;;;;;;;2.33;1.67;;;;;20.23;50.19;101512.50;5077579;27;45855;-88
2022/07/03 07:11:01;;;;;;;;;2.00;2.00;;;;;21.53;49.97;101704.50;5086978;27;45600;-87
2022/07/03 07:13:29;;;;;;;;;2.67;1.33;;;;;21.56;50.12;101702.41;5091935;27;46442;-88
2022/07/03 07:16:00;;;;;;;;;2.00;2.00;;;;;20.88;49.84;101581.81;5084714;27;45574;-87
2022/07/03 07:18:28;;;;;;;;;1.67;1.67;;;;;20.41;49.37;101485.91;5079570;27;45592;-88
2022/07/03 07:21:09;;;;;;;;;3.00;1.33;;;;;21.11;48.81;101607.22;5069252;27;45448;-84
2022/07/03 07:23:37;;;;;;;;;2.00;2.00;;;;;21.16;49.26;101615.88;5078789;27;47038;-85
2022/07/03 07:26:04;;;;;;;;;0.00;0.00;;;;;20.99;48.56;101594.59;5083107;27;45739;-86
2022/07/03 07:28:34;;;;;;;;;2.33;2.00;;;;;21.03;49.50;101618.63;5093993;27;45446;-86
2022/07/03 07:31:08;;;;;;;;;4.33;1.33;;;;;21.06;49.07;101601.28;5079458;27;45653;-86
2022/07/03 07:33:34;;;;;;;;;1.00;1.00;;;;;21.22;49.39;101626.25;5094893;27;46537;-85
2022/07/03 07:35:59;;;;;;;;;3.00;1.00;;;;;21.16;48.91;101590.59;5096639;27;45448;-85
2022/07/03 07:41:32;;;;;;;;;1.00;1.00;;;;;21.47;48.77;101641.59;4999614;28;45579;-86
2022/07/03 07:44:00;;;;;;;;;2.00;1.00;;;;;21.29;48.62;101586.84;5087700;27;45510;-86
2022/07/03 07:46:35;;;;;;;;;1.00;1.00;;;;;21.28;48.10;101577.00;5090687;27;45527;-86
2022/07/03 07:49:00;;;;;;;;;1.00;1.00;;;;;21.27;48.80;101569.84;5092493;27;45374;-84
2022/07/03 07:51:28;;;;;;;;;1.00;1.00;;;;;22.26;48.15;101717.06;5091902;27;45492;-87
2022/07/03 07:54:02;;;;;;;;;2.00;1.00;;;;;21.07;47.96;101503.59;5085574;27;45759;-86
2022/07/03 07:56:27;;;;;;;;;1.00;1.00;;;;;21.78;47.63;101609.41;5090186;27;45466;-87
2022/07/03 07:59:02;;;;;;;;;1.00;1.00;;;;;21.09;47.29;101489.88;5090698;27;45528;-85
2022/07/03 08:07:14;;;;;;;;;0.67;0.67;;;;;22.67;48.05;101716.53;5092454;27;45381;-86
2022/07/03 08:09:40;;;;;;;;;1.00;1.00;;;;;22.13;47.43;101617.50;5090297;27;45358;-83
2022/07/03 08:12:05;;;;;;;;;1.33;1.33;;;;;22.80;46.91;101713.69;5088401;27;45664;-85
2022/07/03 08:14:33;;;;;;;;;1.00;1.00;;;;;22.53;46.97;101651.53;5089678;27;45559;-87
2022/07/03 08:17:08;;;;;;;;;1.00;1.00;;;;;23.01;46.17;101704.81;5093997;27;45337;-85
2022/07/03 08:19:40;;;;;;;;;1.00;1.00;;;;;21.85;45.70;101518.38;5096984;27;45503;-87
2022/07/03 08:22:14;;;;;;;;;2.00;2.00;;;;;22.24;45.81;101578.69;5082195;27;45452;-85
2022/07/03 08:24:42;;;;;;;;;2.33;2.33;;;;;21.92;46.57;101522.34;5078712;27;46210;-87
2022/07/03 08:27:13;;;;;;;;;1.33;1.33;;;;;23.15;46.05;101702.69;5091344;27;45575;-93
2022/07/03 08:29:39;;;;;;;;;3.33;1.67;;;;;22.88;46.84;101642.41;5079380;27;45595;-90
2022/07/03 08:32:14;;;;;;;;;2.00;2.00;;;;;22.25;45.79;101526.09;5076817;27;45522;-87
2022/07/03 08:34:43;;;;;;;;;1.00;1.00;;;;;23.13;44.96;101639.44;5078554;27;46170;-88
2022/07/03 08:37:47;;;;;;;;;2.00;1.00;;;;;22.68;44.27;101541.59;5064915;27;45438;-87
2022/07/03 08:43:28;;;;;;;;;1.00;1.00;;;;;23.13;43.89;101557.84;5076137;27;45371;-86
2022/07/03 08:45:59;;;;;;;;;2.00;2.00;;;;;23.66;43.22;101586.91;5071527;27;48303;-87
2022/07/03 08:48:34;;;;;;;;;1.00;1.00;;;;;24.62;42.32;101620.38;5063064;28;45652;-87
2022/07/03 08:51:01;;;;;;;;;4.00;1.00;;;;;24.63;41.51;101545.75;5078565;27;45540;-86
2022/07/03 08:53:47;;;;;;;;;1.33;1.33;;;;;26.72;37.92;101599.81;5064584;28;45450;-87
2022/07/03 08:59:23;;;;;;;;;1.00;1.00;;;;;30.27;33.34;101584.94;5709839;22;45505;-87
2022/07/03 09:05:12;;;;;;;;;1.00;1.00;;;;;31.75;28.77;101543.63;5328156;22;45514;-87
2022/07/03 09:07:40;;;;;;;;;0.25;0.25;;;;;29.87;30.81;101624.31;5078379;27;46435;-85
2022/07/03 09:10:52;;;;;;;;;3.00;3.00;;;;;29.41;33.11;101700.84;5076845;27;46568;-84
2022/07/03 09:13:17;;;;;;;;;1.00;1.00;;;;;30.04;31.25;101584.78;5069769;27;45504;-92
2022/07/03 09:15:44;;;;;;;;;2.00;1.00;;;;;28.43;32.79;101528.38;5098471;22;45844;-90
2022/07/03 09:18:17;;;;;;;;;1.00;1.00;;;;;28.07;34.15;101694.88;5061626;27;45820;-91
2022/07/03 09:38:21;;;;;;;;;;;;;;;;;;;;;
2022/07/03 09:44:38;;;;;;;;;1.33;1.33;;;;;29.17;33.08;101694.25;5433683;22;45734;-91
2022/07/03 09:50:23;;;;;;;;;3.67;3.00;;;;;33.03;27.46;101665.88;5052144;27;46537;-91
2022/07/03 09:53:40;;;;;;;;;;;;;;;;;;;;;
2022/07/03 09:56:06;;;;;;;;;2.00;1.67;;;;;29.82;29.81;101594.59;5036117;28;73951;-91
2022/07/03 09:59:05;;;;;;;;;4.00;3.00;;;;;29.92;31.04;101707.13;5055019;28;45743;-91
2022/07/03 10:02:20;;;;;;;;;2.67;2.67;;;;;29.60;31.34;101545.81;5153162;22;45521;-91
2022/07/03 10:08:31;;;;;;;;;3.67;3.67;;;;;32.96;27.46;101703.63;5369683;22;46478;-92
2022/07/03 10:15:02;;;;;;;;;;;;;;;;;;;;;
2022/07/03 10:31:05;;;;;;;;;2.33;2.33;;;;;32.15;26.82;101621.53;5328244;22;45566;-90
2022/07/03 10:34:04;;;;;;;;;4.00;4.00;;;;;30.98;28.41;101702.56;5063027;28;46074;-92
2022/07/03 10:36:33;;;;;;;;;1.67;1.67;;;;;28.96;30.38;101593.09;5048920;28;45458;-89
2022/07/03 10:39:20;;;;;;;;;4.00;4.00;;;;;28.33;31.73;101654.66;5075159;27;45699;-90
2022/07/03 11:06:56;;;;;;;;;2.00;1.00;;;;;31.91;28.72;101690.66;5784220;22;46178;-90
2022/07/03 11:21:15;;;;;;;;;1.67;1.67;;;;;31.03;28.30;101700.97;5819317;22;46297;-84
2022/07/03 11:24:02;;;;;;;;;2.00;2.00;;;;;30.74;28.49;101697.94;5035904;28;45476;-82
2022/07/03 11:26:27;;;;;;;;;2.00;2.00;;;;;30.40;29.47;101702.69;5022485;28;45408;-82
2022/07/03 11:28:54;;;;;;;;;1.00;1.00;;;;;30.52;29.31;101658.28;5025662;28;47021;-82
2022/07/03 11:31:22;;;;;;;;;2.00;1.33;;;;;31.03;29.03;101691.88;5029331;28;45458;-82
2022/07/03 11:33:56;;;;;;;;;0.00;0.00;;;;;31.10;29.09;101690.97;5019005;28;45389;-82
2022/07/03 11:36:22;;;;;;;;;0.67;0.67;;;;;31.17;27.71;101676.50;5030485;28;45430;-82
2022/07/03 11:38:59;;;;;;;;;0.00;0.00;;;;;31.11;28.82;101692.66;5024763;28;45530;-82
2022/07/03 11:41:27;;;;;;;;;0.00;0.00;;;;;30.76;28.67;101687.63;5009355;28;45854;-82
2022/07/03 11:44:04;;;;;;;;;4.67;4.33;;;;;30.50;29.52;101670.31;5026171;28;45383;-85
2022/07/03 11:46:33;;;;;;;;;1.00;1.00;;;;;30.43;29.73;101679.47;5021819;28;45448;-83
2022/07/03 11:49:16;;;;;;;;;8.67;8.67;;;;;30.21;30.16;101681.00;5035345;28;46623;-82
2022/07/03 11:52:13;;;;;;;;;7.00;5.67;;;;;29.84;30.29;101643.91;5018952;28;45473;-83
2022/07/03 11:54:53;;;;;;;;;1.33;1.33;;;;;29.78;30.10;101683.94;4959318;28;45580;-82
2022/07/03 11:57:18;;;;;;;;;2.00;2.00;;;;;29.26;30.92;101629.22;4961083;28;45619;-83
2022/07/03 11:59:44;;;;;;;;;2.00;2.00;;;;;28.93;31.49;101598.03;4954615;28;48209;-82
2022/07/03 12:02:09;;;;;;;;;2.00;2.00;;;;;28.90;31.46;101615.69;4958781;28;45392;-84
2022/07/03 12:04:34;;;;;;;;;6.33;4.33;;;;;29.25;32.78;101674.19;4966828;28;45440;-83
2022/07/03 12:07:00;;;;;;;;;6.67;5.33;;;;;29.17;32.83;101664.03;4965341;28;50948;-85
2022/07/03 12:09:26;;;;;;;;;1.00;1.00;;;;;29.10;33.48;101678.59;4956348;28;47429;-85
2022/07/03 12:12:06;;;;;;;;;3.33;3.33;;;;;29.08;33.25;101675.13;4968794;28;46134;-83
2022/07/03 12:14:48;;;;;;;;;3.00;3.00;;;;;29.10;33.60;101673.09;4961292;28;45406;-85
2022/07/03 12:17:24;;;;;;;;;6.00;4.33;;;;;29.11;33.13;101663.84;4962850;28;45641;-85
2022/07/03 12:19:54;;;;;;;;;2.67;2.67;;;;;29.19;32.74;101663.84;4959605;28;46501;-84
2022/07/03 12:22:33;;;;;;;;;5.00;3.00;;;;;28.66;32.42;101577.16;4971809;28;45334;-85
2022/07/03 12:25:06;;;;;;;;;4.00;2.67;;;;;28.72;32.68;101590.25;4968709;28;45454;-84
2022/07/03 12:27:34;;;;;;;;;2.67;2.67;;;;;29.20;33.24;101660.97;4946393;28;45662;-85
2022/07/03 12:30:00;;;;;;;;;8.33;2.67;;;;;28.77;33.53;101616.16;4992463;28;45534;-85
2022/07/03 12:32:26;;;;;;;;;4.00;3.67;;;;;29.00;32.98;101657.59;5012770;28;45422;-84
2022/07/03 12:34:51;;;;;;;;;3.00;3.00;;;;;28.95;34.04;101653.63;5009116;28;45400;-85
2022/07/03 12:37:30;;;;;;;;;1.00;1.00;;;;;28.22;33.96;101544.41;5006176;28;45536;-84
2022/07/03 12:39:56;;;;;;;;;2.67;2.67;;;;;28.91;34.23;101652.22;5015322;28;46033;-85
2022/07/03 12:42:22;;;;;;;;;1.33;1.33;;;;;28.95;32.36;101646.25;5004564;28;45479;-84
2022/07/03 12:45:18;;;;;;;;;1.00;1.00;;;;;29.08;32.65;101650.44;5009581;28;45772;-85
2022/07/03 12:47:44;;;;;;;;;2.00;2.00;;;;;29.16;33.50;101644.97;5001726;28;45524;-85
2022/07/03 12:50:10;;;;;;;;;1.00;0.67;;;;;29.08;32.68;101639.44;4990359;28;48139;-85
2022/07/03 12:52:56;;;;;;;;;0.00;0.00;;;;;28.92;33.50;101649.34;5006438;28;45840;-84
2022/07/03 12:55:29;;;;;;;;;0.33;0.33;;;;;28.86;33.02;101652.72;5012992;28;45269;-84
2022/07/03 13:01:05;;;;;;;;;4.00;4.00;;;;;28.50;32.91;101611.75;5007194;28;45902;-83
2022/07/03 13:03:34;;;;;;;;;1.33;1.33;;;;;28.45;31.98;101640.63;5013983;28;45461;-82
2022/07/03 13:06:00;;;;;;;;;8.33;5.33;;;;;28.11;32.39;101576.53;5002529;28;45530;-84
2022/07/03 13:08:25;;;;;;;;;1.00;1.00;;;;;28.58;30.55;101647.44;5012744;28;45408;-84
2022/07/03 13:10:58;;;;;;;;;0.00;0.00;;;;;28.49;30.75;101634.69;5008870;28;46066;-83
2022/07/03 13:13:24;;;;;;;;;2.00;2.00;;;;;28.02;31.06;101612.28;5004084;28;45473;-83
2022/07/03 13:15:50;;;;;;;;;0.00;0.00;;;;;28.15;30.96;101640.13;5015250;28;45413;-83
2022/07/03 13:18:15;;;;;;;;;0.00;0.00;;;;;28.35;31.47;101647.13;4986049;28;45545;-83
2022/07/03 13:20:40;;;;;;;;;0.00;0.00;;;;;28.16;31.74;101585.13;5012725;28;47332;-84
2022/07/03 13:23:07;;;;;;;;;1.00;1.00;;;;;28.60;31.09;101648.16;5012437;28;45982;-84
2022/07/03 13:25:36;;;;;;;;;1.00;1.00;;;;;28.60;31.40;101642.66;5022794;28;45400;-84
2022/07/03 13:28:04;;;;;;;;;0.00;0.00;;;;;28.57;30.50;101643.00;5035260;28;45443;-84
2022/07/03 13:30:29;;;;;;;;;1.00;1.00;;;;;28.54;31.09;101636.97;5024846;28;46442;-84
2022/07/03 13:32:55;;;;;;;;;0.00;0.00;;;;;28.47;30.15;101635.88;5027283;28;45487;-83
2022/07/03 13:35:20;;;;;;;;;1.00;1.00;;;;;28.49;30.51;101639.34;5031195;28;45381;-83